createdAt,value
2022-09-14T00:01:28.493Z,4.85
2022-09-14T00:04:30.233Z,5.45
2022-09-14T00:07:31.804Z,5.00
2022-09-14T00:10:33.483Z,5.33
2022-09-14T00:13:36.425Z,5.22
2022-09-14T00:16:40.637Z,5.25
2022-09-14T00:19:42.468Z,5.65
2022-09-14T00:22:44.059Z,5.60
2022-09-14T00:25:45.677Z,5.20
2022-09-14T00:28:55.690Z,5.30
2022-09-14T00:31:58.060Z,5.22
2022-09-14T00:34:59.663Z,5.60
2022-09-14T00:38:01.224Z,5.40
2022-09-14T00:41:05.526Z,5.70
2022-09-14T00:44:27.068Z,4.85
2022-09-14T00:47:30.884Z,5.50
2022-09-14T00:50:33.055Z,5.15
2022-09-14T00:53:34.939Z,5.13
2022-09-14T00:56:36.657Z,5.47
2022-09-14T00:59:40.743Z,5.35
2022-09-14T01:02:42.378Z,5.28
2022-09-14T01:06:03.224Z,6.03
2022-09-14T01:09:13.643Z,5.63
2022-09-14T01:12:44.566Z,5.13
2022-09-14T01:16:13.148Z,5.20
2022-09-14T01:19:46.283Z,5.60
2022-09-14T01:23:10.082Z,5.50
2022-09-14T01:26:52.687Z,5.32
2022-09-14T01:30:06.658Z,5.50
2022-09-14T01:33:21.341Z,5.43
2022-09-14T01:36:26.393Z,5.82
2022-09-14T01:39:31.701Z,5.68
2022-09-14T01:42:35.352Z,5.60
2022-09-14T01:45:42.388Z,5.50
2022-09-14T01:48:50.878Z,5.80
2022-09-14T01:51:59.961Z,5.93
2022-09-14T01:55:26.093Z,5.53
2022-09-14T01:58:39.165Z,5.53
2022-09-14T02:01:50.128Z,5.60
2022-09-14T02:05:08.998Z,5.55
2022-09-14T02:08:11.183Z,5.40
2022-09-14T02:11:13.006Z,5.60
2022-09-14T02:14:16.972Z,6.28
2022-09-14T02:17:19.115Z,5.90
2022-09-14T02:20:33.236Z,6.20
2022-09-14T02:23:38.185Z,6.30
2022-09-14T02:26:50.157Z,5.40
2022-09-14T02:29:55.401Z,5.80
2022-09-14T02:33:10.627Z,5.27
2022-09-14T02:36:52.876Z,5.72
2022-09-14T02:40:06.798Z,5.50
2022-09-14T02:43:33.306Z,5.68
2022-09-14T02:47:12.383Z,6.25
2022-09-14T02:50:57.528Z,6.13
2022-09-14T02:54:06.811Z,5.80
2022-09-14T02:57:09.903Z,5.60
2022-09-14T03:00:12.532Z,5.80
2022-09-14T03:03:17.250Z,6.10
2022-09-14T03:06:18.961Z,6.17
2022-09-14T03:09:20.571Z,6.20
2022-09-14T03:12:22.184Z,6.07
2022-09-14T03:15:23.881Z,5.88
2022-09-14T03:18:25.485Z,5.75
2022-09-14T03:21:27.074Z,5.57
2022-09-14T03:24:28.668Z,6.00
2022-09-14T03:27:30.322Z,5.35
2022-09-14T03:30:32.345Z,5.57
2022-09-14T03:33:34.336Z,5.07
2022-09-14T03:36:35.926Z,5.40
2022-09-14T03:39:37.792Z,5.53
2022-09-14T03:42:50.354Z,5.50
2022-09-14T03:45:52.039Z,5.60
2022-09-14T03:48:54.715Z,5.60
2022-09-14T03:51:59.678Z,5.70
2022-09-14T03:55:01.928Z,5.30
2022-09-14T03:58:03.560Z,5.50
2022-09-14T04:01:11.429Z,5.18
2022-09-14T04:04:13.444Z,5.18
2022-09-14T04:07:15.981Z,4.93
2022-09-14T04:10:17.732Z,4.38
2022-09-14T04:13:19.868Z,4.70
2022-09-14T04:16:21.952Z,4.72
2022-09-14T04:19:23.638Z,4.50
2022-09-14T04:22:25.409Z,4.80
2022-09-14T04:25:26.999Z,4.95
2022-09-14T04:28:28.795Z,4.60
2022-09-14T04:31:30.846Z,4.50
2022-09-14T04:34:32.762Z,4.90
2022-09-14T04:37:34.372Z,4.77
2022-09-14T04:40:41.410Z,4.50
2022-09-14T04:43:45.227Z,4.50
2022-09-14T04:46:47.306Z,4.80
2022-09-14T04:49:49.136Z,5.18
2022-09-14T04:52:50.834Z,4.93
2022-09-14T04:55:52.417Z,4.97
2022-09-14T04:58:58.614Z,5.03
2022-09-14T05:02:00.422Z,4.60
2022-09-14T05:05:02.046Z,4.80
2022-09-14T05:08:03.707Z,4.90
2022-09-14T05:11:06.822Z,4.68
2022-09-14T05:14:13.087Z,5.03
2022-09-14T05:17:14.730Z,5.10
2022-09-14T05:20:16.606Z,4.75
2022-09-14T05:23:18.211Z,4.90
2022-09-14T05:26:19.817Z,5.15
2022-09-14T05:29:21.477Z,5.22
2022-09-14T05:32:23.078Z,4.63
2022-09-14T05:35:24.643Z,4.82
2022-09-14T05:38:28.897Z,4.87
2022-09-14T05:41:30.716Z,5.28
2022-09-14T05:44:32.329Z,4.90
2022-09-14T05:47:38.411Z,4.85
2022-09-14T05:50:40.755Z,5.00
2022-09-14T05:53:43.597Z,4.63
2022-09-14T05:56:45.284Z,4.80
2022-09-14T05:59:46.908Z,4.97
2022-09-14T06:02:54.459Z,4.97
2022-09-14T06:05:58.109Z,5.18
2022-09-14T06:09:00.183Z,5.00
2022-09-14T06:12:02.017Z,5.00
2022-09-14T06:15:03.802Z,5.03
2022-09-14T06:18:05.463Z,4.40
2022-09-14T06:21:08.472Z,4.25
2022-09-14T06:24:12.455Z,4.10
2022-09-14T06:27:15.432Z,4.10
2022-09-14T06:30:17.318Z,4.00
2022-09-14T06:33:19.456Z,4.30
2022-09-14T06:36:23.401Z,3.90
2022-09-14T06:39:25.053Z,4.00
2022-09-14T06:42:29.644Z,4.10
2022-09-14T06:45:36.806Z,3.85
2022-09-14T06:48:44.604Z,4.05
2022-09-14T06:51:47.456Z,3.55
2022-09-14T06:54:49.093Z,3.73
2022-09-14T06:57:50.750Z,3.72
2022-09-14T07:00:52.380Z,3.58
2022-09-14T07:03:54.661Z,3.42
2022-09-14T07:06:56.404Z,3.30
2022-09-14T07:09:57.966Z,3.27
2022-09-14T07:13:00.419Z,3.40
2022-09-14T07:16:03.616Z,3.58
2022-09-14T07:19:08.205Z,3.40
2022-09-14T07:22:09.911Z,3.35
2022-09-14T07:25:11.933Z,3.30
2022-09-14T07:28:13.601Z,3.45
2022-09-14T07:31:21.491Z,3.30
2022-09-14T07:34:23.922Z,3.08
2022-09-14T07:37:25.519Z,3.30
2022-09-14T07:40:27.312Z,2.97
2022-09-14T07:43:30.026Z,3.30
2022-09-14T07:46:38.335Z,3.08
2022-09-14T07:49:39.989Z,3.28
2022-09-14T07:52:41.601Z,3.30
2022-09-14T07:55:43.274Z,2.97
2022-09-14T07:58:45.549Z,3.40
2022-09-14T08:01:48.301Z,3.30
2022-09-14T08:04:53.775Z,3.10
2022-09-14T08:07:56.421Z,3.25
2022-09-14T08:11:17.043Z,2.93
2022-09-14T08:14:20.627Z,3.28
2022-09-14T08:17:24.027Z,3.17
2022-09-14T08:20:25.645Z,3.08
2022-09-14T08:23:27.340Z,3.03
2022-09-14T08:26:29.180Z,3.03
2022-09-14T08:29:30.805Z,2.85
2022-09-14T08:32:32.446Z,2.80
2022-09-14T08:35:56.451Z,3.00
2022-09-14T08:38:55.613Z,3.05
2022-09-14T08:42:00.192Z,3.00
2022-09-14T08:45:09.503Z,2.97
2022-09-14T08:48:30.020Z,2.90
2022-09-14T08:51:31.553Z,2.80
2022-09-14T08:54:33.385Z,2.67
2022-09-14T08:57:45.833Z,2.80
2022-09-14T09:00:59.663Z,2.80
2022-09-14T09:04:26.375Z,3.28
2022-09-14T09:07:49.075Z,2.88
2022-09-14T09:10:53.489Z,3.00
2022-09-14T09:13:56.181Z,3.10
2022-09-14T09:17:01.600Z,2.95
2022-09-14T09:20:07.235Z,3.13
2022-09-14T09:23:19.647Z,2.95
2022-09-14T09:26:32.814Z,3.10
2022-09-14T09:29:34.477Z,3.03
2022-09-14T09:32:45.065Z,2.85
2022-09-14T09:36:14.360Z,3.00
2022-09-14T09:39:16.831Z,2.70
2022-09-14T09:42:26.960Z,2.72
2022-09-14T09:45:47.666Z,2.87
2022-09-14T09:48:49.395Z,2.97
2022-09-14T09:51:52.509Z,2.22
2022-09-14T09:54:56.578Z,2.33
2022-09-14T09:58:52.156Z,2.33
2022-09-14T10:01:57.711Z,2.20
2022-09-14T10:05:18.227Z,2.47
2022-09-14T10:08:19.925Z,2.42
2022-09-14T10:11:33.118Z,2.25
2022-09-14T10:14:37.580Z,2.50
2022-09-14T10:17:39.230Z,2.30
2022-09-14T10:21:05.487Z,2.60
2022-09-14T10:24:17.734Z,2.90
2022-09-14T10:27:39.788Z,2.90
2022-09-14T10:30:51.102Z,3.03
2022-09-14T10:33:58.222Z,3.13
2022-09-14T10:37:43.374Z,2.90
2022-09-14T10:40:52.674Z,2.72
2022-09-14T10:44:07.637Z,2.88
2022-09-14T10:47:31.464Z,2.90
2022-09-14T10:50:42.144Z,3.03
2022-09-14T10:53:53.258Z,2.95
2022-09-14T10:57:03.562Z,3.20
2022-09-14T11:00:12.872Z,3.10
2022-09-14T11:03:27.731Z,2.90
2022-09-14T11:06:45.733Z,3.20
2022-09-14T11:10:18.892Z,3.13
2022-09-14T11:13:42.328Z,2.95
2022-09-14T11:17:13.414Z,3.10
2022-09-14T11:20:15.595Z,3.28
2022-09-14T11:23:17.679Z,3.00
2022-09-14T11:26:57.606Z,3.00
2022-09-14T11:30:37.184Z,2.90
2022-09-14T11:33:54.105Z,2.90
2022-09-14T11:37:03.502Z,3.05
2022-09-14T11:40:15.918Z,3.10
2022-09-14T11:43:26.049Z,3.10
2022-09-14T11:46:31.921Z,3.00
2022-09-14T11:49:34.456Z,3.10
2022-09-14T11:52:36.378Z,3.13
2022-09-14T11:55:43.946Z,3.27
2022-09-14T11:58:46.754Z,3.30
2022-09-14T12:01:48.419Z,3.35
2022-09-14T12:05:05.550Z,3.17
2022-09-14T12:08:32.121Z,3.10
2022-09-14T12:11:35.842Z,3.20
2022-09-14T12:14:40.668Z,2.90
2022-09-14T12:17:42.758Z,3.03
2022-09-14T12:21:05.573Z,3.13
2022-09-14T12:24:15.285Z,3.08
2022-09-14T12:27:23.480Z,2.90
2022-09-14T12:30:39.784Z,3.13
2022-09-14T12:33:43.769Z,3.22
2022-09-14T12:36:45.438Z,3.13
2022-09-14T12:40:34.369Z,2.70
2022-09-14T12:43:36.111Z,2.77
2022-09-14T12:46:39.197Z,2.85
2022-09-14T12:49:41.339Z,3.10
2022-09-14T12:52:54.492Z,2.90
2022-09-14T12:56:04.192Z,2.90
2022-09-14T12:59:23.496Z,3.00
2022-09-14T13:03:02.707Z,3.13
2022-09-14T13:06:13.652Z,3.10
2022-09-14T13:09:30.892Z,3.08
2022-09-14T13:12:43.281Z,3.20
2022-09-14T13:15:51.782Z,2.90
2022-09-14T13:19:01.452Z,3.05
2022-09-14T13:22:03.203Z,3.22
2022-09-14T13:25:05.278Z,3.30
2022-09-14T13:28:14.519Z,3.50
2022-09-14T13:31:27.146Z,2.90
2022-09-14T13:34:37.104Z,3.20
2022-09-14T13:37:38.971Z,3.35
2022-09-14T13:40:40.720Z,3.47
2022-09-14T13:43:44.579Z,3.17
2022-09-14T13:46:46.414Z,3.20
2022-09-14T13:49:50.781Z,3.08
2022-09-14T13:53:02.925Z,3.20
2022-09-14T13:56:34.643Z,3.35
2022-09-14T13:59:36.317Z,3.00
2022-09-14T14:02:46.044Z,3.07
2022-09-14T14:05:47.810Z,3.00
2022-09-14T14:09:00.421Z,1.70
2022-09-14T14:12:02.224Z,1.02
2022-09-14T14:15:26.209Z,1.20
2022-09-14T14:18:39.881Z,1.10
2022-09-14T14:21:41.582Z,1.02
2022-09-14T14:25:12.243Z,1.35
2022-09-14T14:28:27.910Z,1.08
2022-09-14T14:31:29.556Z,1.40
2022-09-14T14:34:31.276Z,1.50
2022-09-14T14:37:33.139Z,1.88
2022-09-14T14:40:35.216Z,2.00
2022-09-14T14:43:37.059Z,2.58
2022-09-14T14:46:40.441Z,2.58
2022-09-14T14:49:41.983Z,2.43
2022-09-14T14:52:44.043Z,2.30
2022-09-14T14:55:45.805Z,2.60
2022-09-14T14:58:47.668Z,2.55
2022-09-14T15:01:52.041Z,2.55
2022-09-14T15:04:53.720Z,2.70
2022-09-14T15:07:56.123Z,2.70
2022-09-14T15:10:58.097Z,3.05
2022-09-14T15:13:59.829Z,2.90
2022-09-14T15:17:02.730Z,2.72
2022-09-14T15:20:04.743Z,2.80
2022-09-14T15:23:06.354Z,2.80
2022-09-14T15:26:08.090Z,3.13
2022-09-14T15:29:13.287Z,3.05
2022-09-14T15:32:14.981Z,3.45
2022-09-14T15:35:16.809Z,3.17
2022-09-14T15:38:18.526Z,2.88
2022-09-14T15:41:20.348Z,3.05
2022-09-14T15:44:22.705Z,2.75
2022-09-14T15:47:24.362Z,2.83
2022-09-14T15:50:26.030Z,2.50
2022-09-14T15:53:28.010Z,2.70
2022-09-14T15:56:29.821Z,2.85
2022-09-14T15:59:31.971Z,2.60
2022-09-14T16:02:33.715Z,2.83
2022-09-14T16:05:39.698Z,3.10
2022-09-14T16:08:41.947Z,2.58
2022-09-14T16:11:44.296Z,2.90
2022-09-14T16:14:45.935Z,2.80
2022-09-14T16:17:54.235Z,2.90
2022-09-14T16:20:55.958Z,2.80
2022-09-14T16:24:00.186Z,2.47
2022-09-14T16:27:01.863Z,2.38
2022-09-14T16:30:03.838Z,2.13
2022-09-14T16:33:05.493Z,2.60
2022-09-14T16:36:10.363Z,2.20
2022-09-14T16:39:18.412Z,2.40
2022-09-14T16:42:20.220Z,2.22
2022-09-14T16:45:21.949Z,2.40
2022-09-14T16:48:23.599Z,2.20
2022-09-14T16:51:28.186Z,2.13
2022-09-14T16:54:31.658Z,2.17
2022-09-14T16:57:33.378Z,2.20
2022-09-14T17:00:35.517Z,2.30
2022-09-14T17:03:37.703Z,2.38
2022-09-14T17:06:41.512Z,2.17
2022-09-14T17:09:43.349Z,2.13
2022-09-14T17:12:46.846Z,2.35
2022-09-14T17:15:48.566Z,1.90
2022-09-14T17:18:52.161Z,1.95
2022-09-14T17:21:56.275Z,2.10
2022-09-14T17:24:58.180Z,2.20
2022-09-14T17:27:59.899Z,2.22
2022-09-14T17:31:03.116Z,2.42
2022-09-14T17:34:07.185Z,2.53
2022-09-14T17:37:09.165Z,2.40
2022-09-14T17:40:11.164Z,2.60
2022-09-14T17:43:13.501Z,2.67
2022-09-14T17:46:16.203Z,2.30
2022-09-14T17:49:17.946Z,2.75
2022-09-14T17:52:19.591Z,2.57
2022-09-14T17:55:21.284Z,2.80
2022-09-14T17:58:22.885Z,2.80
2022-09-14T18:01:24.522Z,2.45
2022-09-14T18:04:27.041Z,2.30
2022-09-14T18:07:30.676Z,2.40
2022-09-14T18:10:32.424Z,2.20
2022-09-14T18:13:34.555Z,2.30
2022-09-14T18:16:36.366Z,2.15
2022-09-14T18:19:38.930Z,2.42
2022-09-14T18:22:41.300Z,2.10
2022-09-14T18:25:43.278Z,2.13
2022-09-14T18:28:46.072Z,2.13
2022-09-14T18:31:47.945Z,2.00
2022-09-14T18:34:49.715Z,2.20
2022-09-14T18:37:51.307Z,2.13
2022-09-14T18:40:53.128Z,2.20
2022-09-14T18:43:56.166Z,2.30
2022-09-14T18:46:58.608Z,2.30
2022-09-14T18:50:00.710Z,2.30
2022-09-14T18:53:02.336Z,2.10
2022-09-14T18:56:06.506Z,2.53
2022-09-14T18:59:12.448Z,2.60
2022-09-14T19:02:14.174Z,2.58
2022-09-14T19:05:15.949Z,2.65
2022-09-14T19:08:17.609Z,2.40
2022-09-14T19:11:22.552Z,2.80
2022-09-14T19:14:24.254Z,2.75
2022-09-14T19:17:26.000Z,2.90
2022-09-14T19:20:43.175Z,2.97
2022-09-14T19:23:54.844Z,2.90
2022-09-14T19:26:56.484Z,2.83
2022-09-14T19:30:00.064Z,2.97
2022-09-14T19:33:02.038Z,3.05
2022-09-14T19:36:09.240Z,2.97
2022-09-14T19:39:11.312Z,2.90
2022-09-14T19:42:12.922Z,2.95
2022-09-14T19:45:16.558Z,3.30
2022-09-14T19:48:18.397Z,3.35
2022-09-14T19:51:23.043Z,2.97
2022-09-14T19:54:25.032Z,3.37
2022-09-14T19:57:26.697Z,3.53
2022-09-14T20:00:28.311Z,3.47
2022-09-14T20:03:29.963Z,3.33
2022-09-14T20:06:37.257Z,3.40
2022-09-14T20:09:38.968Z,3.60
2022-09-14T20:12:40.615Z,3.40
2022-09-14T20:15:42.281Z,3.45
2022-09-14T20:18:45.492Z,3.22
2022-09-14T20:21:49.101Z,3.28
2022-09-14T20:24:50.705Z,3.23
2022-09-14T20:27:52.333Z,3.30
2022-09-14T20:30:59.024Z,3.45
2022-09-14T20:34:00.841Z,3.63
2022-09-14T20:37:02.485Z,3.33
2022-09-14T20:40:05.357Z,3.73
2022-09-14T20:43:07.093Z,3.80
2022-09-14T20:46:12.324Z,3.92
2022-09-14T20:49:17.202Z,3.67
2022-09-14T20:52:19.421Z,3.90
2022-09-14T20:55:21.031Z,3.80
2022-09-14T20:58:22.608Z,3.97
2022-09-14T21:01:27.658Z,3.90
2022-09-14T21:04:29.338Z,3.80
2022-09-14T21:07:30.935Z,4.05
2022-09-14T21:10:32.570Z,3.80
2022-09-14T21:13:35.426Z,3.78
2022-09-14T21:16:43.586Z,3.70
2022-09-14T21:19:45.208Z,3.92
2022-09-14T21:22:47.161Z,3.92
2022-09-14T21:25:55.960Z,4.00
2022-09-14T21:28:59.439Z,3.92
2022-09-14T21:32:03.582Z,3.58
2022-09-14T21:35:08.929Z,3.60
2022-09-14T21:38:10.986Z,3.50
2022-09-14T21:41:12.642Z,3.47
2022-09-14T21:44:14.840Z,3.50
2022-09-14T21:47:16.443Z,3.38
2022-09-14T21:50:18.135Z,3.67
2022-09-14T21:53:19.734Z,3.78
2022-09-14T21:56:23.727Z,3.30
2022-09-14T21:59:25.606Z,3.33
2022-09-14T22:02:27.589Z,3.50
2022-09-14T22:05:29.298Z,3.58
2022-09-14T22:08:31.552Z,3.42
2022-09-14T22:11:35.171Z,3.30
2022-09-14T22:14:36.781Z,3.83
2022-09-14T22:17:38.661Z,3.75
2022-09-14T22:20:40.672Z,3.72
2022-09-14T22:23:42.327Z,3.67
2022-09-14T22:26:44.502Z,3.53
2022-09-14T22:29:46.212Z,3.75
2022-09-14T22:32:47.880Z,3.60
2022-09-14T22:35:54.802Z,3.92
2022-09-14T22:38:57.790Z,3.88
2022-09-14T22:41:59.686Z,4.00
2022-09-14T22:45:01.312Z,4.13
2022-09-14T22:48:04.058Z,4.20
2022-09-14T22:51:07.688Z,3.88
2022-09-14T22:54:09.321Z,3.80
2022-09-14T22:57:10.961Z,3.67
2022-09-14T23:00:13.393Z,3.58
2022-09-14T23:03:16.611Z,3.70
2022-09-14T23:06:18.231Z,3.70
2022-09-14T23:09:21.998Z,3.53
2022-09-14T23:12:23.660Z,3.60
2022-09-14T23:15:25.379Z,2.90
2022-09-14T23:18:27.992Z,3.35
2022-09-14T23:21:31.145Z,2.92
2022-09-14T23:24:32.997Z,2.92
2022-09-14T23:27:34.664Z,2.80
2022-09-14T23:30:36.474Z,2.85
2022-09-14T23:33:38.430Z,3.13
2022-09-14T23:36:40.165Z,3.00
2022-09-14T23:39:41.901Z,2.65
2022-09-14T23:42:43.790Z,2.90
2022-09-14T23:45:46.640Z,3.10
2022-09-14T23:48:49.067Z,2.85
2022-09-14T23:51:50.740Z,2.80
2022-09-14T23:54:52.497Z,2.60
2022-09-14T23:57:54.355Z,3.10
